Time;durP1;ratioP1;P1;durP2;ratioP2;P2;SDS_P1;SDS_P2;PMS_P1;PMS_P2;Temp;Humidity;BMP_temperature;BMP_pressure;BME280_temperature;BME280_humidity;BME280_pressure;Samples;Min_cycle;Max_cycle;Signal;HPM_P1;HPM_P2
2021/11/03 00:00:04;;;;;;;8.10;2.60;;;6.40;99.90;;;;;;5072244;28;20212;-58
2021/11/03 00:02:31;;;;;;;3.87;2.40;;;6.40;99.90;;;;;;5074581;28;20412;-59
2021/11/03 00:04:58;;;;;;;7.70;2.23;;;6.40;99.90;;;;;;5074397;28;20216;-57
2021/11/03 00:07:28;;;;;;;3.00;2.00;;;6.40;99.90;;;;;;5074518;28;20691;-58
2021/11/03 00:09:57;;;;;;;1.97;1.60;;;6.50;99.90;;;;;;5074606;28;20500;-60
2021/11/03 00:12:24;;;;;;;2.43;1.90;;;6.60;99.90;;;;;;5074494;28;20232;-60
2021/11/03 00:14:52;;;;;;;2.10;1.90;;;6.70;99.90;;;;;;5073913;28;20209;-59
2021/11/03 00:17:18;;;;;;;3.73;2.23;;;6.70;99.90;;;;;;5074250;28;20267;-58
2021/11/03 00:19:45;;;;;;;3.00;2.13;;;6.80;99.90;;;;;;5074027;28;20239;-58
2021/11/03 00:22:14;;;;;;;3.47;2.53;;;6.80;99.90;;;;;;5074086;28;20242;-58
2021/11/03 00:24:41;;;;;;;3.57;1.87;;;6.80;99.90;;;;;;5074215;28;20215;-58
2021/11/03 00:27:08;;;;;;;2.60;2.00;;;6.80;99.90;;;;;;5074048;28;20204;-58
2021/11/03 00:29:35;;;;;;;2.90;2.10;;;6.90;99.90;;;;;;5074378;28;20205;-58
2021/11/03 00:32:04;;;;;;;2.23;1.80;;;7.00;99.90;;;;;;5073379;28;20232;-60
2021/11/03 00:34:30;;;;;;;4.17;2.03;;;7.00;99.90;;;;;;5073766;28;20212;-59
2021/11/03 00:36:58;;;;;;;5.37;3.37;;;7.10;99.90;;;;;;5073800;28;20205;-59
2021/11/03 00:39:26;;;;;;;4.33;2.30;;;7.30;99.90;;;;;;5073570;28;20669;-59
2021/11/03 00:41:53;;;;;;;3.03;1.70;;;7.40;99.90;;;;;;5073457;28;20604;-58
2021/11/03 00:44:20;;;;;;;2.30;1.90;;;7.40;99.90;;;;;;5073508;28;20209;-58
2021/11/03 00:46:46;;;;;;;3.10;1.70;;;7.30;99.90;;;;;;5073318;28;20215;-59
2021/11/03 00:49:15;;;;;;;2.57;1.90;;;7.20;99.90;;;;;;5073464;28;20212;-58
2021/11/03 00:51:42;;;;;;;3.33;1.60;;;7.20;99.90;;;;;;5073576;28;20232;-61
2021/11/03 00:54:09;;;;;;;2.83;1.77;;;7.20;99.90;;;;;;5073269;28;20580;-56
2021/11/03 00:56:36;;;;;;;1.80;1.60;;;7.10;99.90;;;;;;5073315;28;20275;-60
2021/11/03 00:59:03;;;;;;;2.27;1.70;;;7.10;99.90;;;;;;5073106;28;20204;-58
2021/11/03 01:01:31;;;;;;;5.83;1.90;;;7.20;99.90;;;;;;5073190;28;20220;-60
2021/11/03 01:03:58;;;;;;;1.87;1.23;;;7.30;99.90;;;;;;5073094;28;20708;-59
2021/11/03 01:06:26;;;;;;;1.97;1.50;;;7.40;99.90;;;;;;5073316;28;20205;-60
2021/11/03 01:08:53;;;;;;;2.80;1.60;;;7.50;99.90;;;;;;5073907;28;20262;-57
2021/11/03 01:11:19;;;;;;;1.87;1.43;;;7.60;99.90;;;;;;5074723;28;20251;-56
2021/11/03 01:13:46;;;;;;;1.80;1.53;;;7.60;99.90;;;;;;5073619;28;20424;-56
2021/11/03 01:16:13;;;;;;;2.73;1.70;;;7.70;99.90;;;;;;5072834;28;20608;-58
2021/11/03 01:18:40;;;;;;;1.57;1.37;;;7.80;99.90;;;;;;5072938;28;20261;-58
2021/11/03 01:21:07;;;;;;;2.00;1.57;;;7.80;99.90;;;;;;5072946;28;20290;-60
2021/11/03 01:23:35;;;;;;;1.97;1.40;;;7.80;99.90;;;;;;5072618;28;20270;-59
2021/11/03 01:26:02;;;;;;;2.50;1.23;;;7.70;99.90;;;;;;5072698;28;20668;-58
2021/11/03 01:28:28;;;;;;;1.73;1.40;;;7.70;99.90;;;;;;5072568;28;20212;-58
2021/11/03 01:30:56;;;;;;;3.70;2.00;;;7.70;99.90;;;;;;5096554;22;20654;-58
2021/11/03 01:33:23;;;;;;;2.63;1.60;;;7.70;99.90;;;;;;5052410;28;20245;-58
2021/11/03 01:35:50;;;;;;;2.10;1.60;;;7.60;99.90;;;;;;5052842;28;20212;-59
2021/11/03 01:38:16;;;;;;;1.87;1.50;;;7.60;99.90;;;;;;5052659;28;20210;-56
2021/11/03 01:40:49;;;;;;;1.47;1.30;;;7.50;99.90;;;;;;5052559;28;20235;-57
2021/11/03 01:43:32;;;;;;;1.43;1.10;;;7.40;99.90;;;;;;5032580;28;20724;-56
2021/11/03 01:46:22;;;;;;;1.93;1.30;;;7.40;99.90;;;;;;5032842;28;20260;-57
2021/11/03 01:48:49;;;;;;;2.43;1.40;;;7.40;99.90;;;;;;5032472;28;20584;-57
2021/11/03 01:51:22;;;;;;;1.93;1.37;;;7.50;99.90;;;;;;5032304;28;20657;-57
2021/11/03 01:53:49;;;;;;;4.20;1.70;;;7.60;99.90;;;;;;5032516;28;20210;-58
2021/11/03 01:56:19;;;;;;;2.30;1.73;;;7.70;99.90;;;;;;5032658;28;20206;-59
2021/11/03 01:58:51;;;;;;;3.33;1.77;;;7.70;99.90;;;;;;5032364;28;20210;-57
2021/11/03 02:01:18;;;;;;;2.67;1.63;;;7.80;99.90;;;;;;5032376;28;20244;-58
2021/11/03 02:03:45;;;;;;;3.00;1.70;;;7.90;99.90;;;;;;5031934;28;20233;-58
2021/11/03 02:06:17;;;;;;;1.37;1.27;;;7.90;99.90;;;;;;5032268;28;20242;-58
2021/11/03 02:08:45;;;;;;;3.23;1.30;;;7.80;99.90;;;;;;5032212;28;20217;-58
2021/11/03 02:11:14;;;;;;;5.33;1.87;;;7.90;99.90;;;;;;5032177;28;20249;-57
2021/11/03 02:13:44;;;;;;;2.70;1.50;;;7.90;99.90;;;;;;5032043;28;20207;-58
2021/11/03 02:16:13;;;;;;;2.93;1.30;;;7.80;99.90;;;;;;5032200;28;20232;-58
2021/11/03 02:18:41;;;;;;;2.60;1.40;;;7.70;99.90;;;;;;5032119;28;20260;-59
2021/11/03 02:21:10;;;;;;;3.23;1.47;;;7.70;99.90;;;;;;5032238;28;20230;-58
2021/11/03 02:23:42;;;;;;;2.80;1.30;;;7.70;99.90;;;;;;5031239;28;20230;-58
2021/11/03 02:26:13;;;;;;;2.60;1.40;;;7.70;99.90;;;;;;5032118;28;20206;-58
2021/11/03 02:28:44;;;;;;;2.27;1.13;;;7.70;99.90;;;;;;5031849;28;20206;-59
2021/11/03 02:31:28;;;;;;;4.50;1.80;;;7.70;99.90;;;;;;5031865;28;20599;-57
2021/11/03 02:33:55;;;;;;;2.97;1.40;;;7.80;99.90;;;;;;5031934;28;20260;-58
2021/11/03 02:36:21;;;;;;;1.90;1.33;;;8.00;99.90;;;;;;5031954;28;20218;-58
2021/11/03 02:38:48;;;;;;;2.53;1.40;;;8.20;99.90;;;;;;5031834;28;20709;-59
2021/11/03 02:41:20;;;;;;;2.97;1.50;;;8.20;99.90;;;;;;5032136;28;20649;-58
2021/11/03 02:43:52;;;;;;;2.67;1.40;;;8.20;99.90;;;;;;5031752;28;20775;-57
2021/11/03 02:46:19;;;;;;;2.83;1.37;;;8.00;99.90;;;;;;5031785;28;20203;-58
2021/11/03 02:48:47;;;;;;;1.87;1.30;;;7.90;99.90;;;;;;5031363;28;20206;-58
2021/11/03 02:51:17;;;;;;;3.07;2.00;;;7.80;99.90;;;;;;5031447;28;20309;-57
2021/11/03 02:53:46;;;;;;;3.17;1.70;;;7.80;99.90;;;;;;5031100;28;20221;-57
2021/11/03 02:56:14;;;;;;;3.17;1.53;;;7.70;99.90;;;;;;5031492;28;20297;-57
2021/11/03 02:58:42;;;;;;;5.97;3.10;;;7.70;99.90;;;;;;5031350;28;20632;-58
2021/11/03 03:01:13;;;;;;;12.00;7.07;;;7.60;99.90;;;;;;5031335;28;20234;-58
2021/11/03 03:03:44;;;;;;;4.33;1.70;;;7.60;99.90;;;;;;5031046;28;20245;-58
2021/11/03 03:06:14;;;;;;;2.63;1.70;;;7.70;99.90;;;;;;5031130;28;20210;-58
2021/11/03 03:08:41;;;;;;;3.20;1.67;;;7.80;99.90;;;;;;5031537;28;20206;-58
2021/11/03 03:11:07;;;;;;;1.77;1.23;;;7.80;99.90;;;;;;5031210;28;20206;-58
2021/11/03 03:13:34;;;;;;;2.27;1.57;;;7.80;99.90;;;;;;5031397;28;20210;-58
2021/11/03 03:16:02;;;;;;;3.20;1.40;;;7.80;99.90;;;;;;5031100;28;20213;-58
2021/11/03 03:18:29;;;;;;;2.07;1.57;;;7.90;99.90;;;;;;5031087;28;20206;-58
2021/11/03 03:20:56;;;;;;;4.23;1.63;;;8.10;99.90;;;;;;5030852;28;20213;-59
2021/11/03 03:23:22;;;;;;;2.77;1.93;;;8.30;99.90;;;;;;5030817;28;20708;-58
2021/11/03 03:25:52;;;;;;;3.13;2.47;;;8.50;99.90;;;;;;5031104;28;20206;-58
2021/11/03 03:28:19;;;;;;;2.63;1.60;;;8.50;99.90;;;;;;5030907;28;20202;-58
2021/11/03 03:30:46;;;;;;;3.07;1.73;;;8.50;99.90;;;;;;5030907;28;20217;-58
2021/11/03 03:33:14;;;;;;;3.50;1.60;;;8.60;99.90;;;;;;5030689;28;20245;-58
2021/11/03 03:35:40;;;;;;;4.70;1.90;;;8.60;99.90;;;;;;5034725;28;20580;-58
2021/11/03 03:38:07;;;;;;;4.30;1.93;;;8.60;99.90;;;;;;5035070;28;20210;-58
2021/11/03 03:40:34;;;;;;;3.57;2.07;;;8.60;99.90;;;;;;5035255;28;20202;-57
2021/11/03 03:43:01;;;;;;;4.30;2.20;;;8.50;99.90;;;;;;5034996;28;20234;-58
2021/11/03 03:45:28;;;;;;;3.93;1.90;;;8.50;99.90;;;;;;5034845;28;20206;-58
2021/11/03 03:47:54;;;;;;;5.80;2.20;;;8.50;99.90;;;;;;5035237;28;20670;-58
2021/11/03 03:50:22;;;;;;;3.60;2.30;;;8.50;99.90;;;;;;5034981;28;20213;-58
2021/11/03 03:52:49;;;;;;;2.83;1.60;;;8.50;99.90;;;;;;5034792;28;20226;-58
2021/11/03 03:55:16;;;;;;;4.70;2.13;;;8.40;99.90;;;;;;5034517;28;20218;-58
2021/11/03 03:57:42;;;;;;;4.63;3.07;;;8.30;99.90;;;;;;5034802;28;20690;-57
2021/11/03 04:00:13;;;;;;;2.97;1.90;;;8.30;99.90;;;;;;5034964;28;20217;-59
2021/11/03 04:02:40;;;;;;;3.80;2.17;;;8.30;99.90;;;;;;5034529;28;20230;-59
2021/11/03 04:05:07;;;;;;;4.23;1.60;;;8.30;99.90;;;;;;5034811;28;20202;-58
2021/11/03 04:07:35;;;;;;;6.97;2.97;;;8.30;99.90;;;;;;5035160;28;20590;-59
2021/11/03 04:10:02;;;;;;;4.57;1.97;;;8.30;99.90;;;;;;5034862;28;20695;-57
2021/11/03 04:12:29;;;;;;;3.53;1.60;;;8.30;99.90;;;;;;5034795;28;20226;-56
2021/11/03 04:14:55;;;;;;;4.43;2.10;;;8.20;99.90;;;;;;5034109;28;20206;-58
2021/11/03 04:17:22;;;;;;;4.63;2.17;;;8.30;99.90;;;;;;5034163;28;20221;-57
2021/11/03 04:19:49;;;;;;;5.13;2.60;;;8.40;99.90;;;;;;5033956;28;20264;-56
2021/11/03 04:22:16;;;;;;;3.73;2.00;;;8.60;99.90;;;;;;5034180;28;20463;-56
2021/11/03 04:24:45;;;;;;;5.87;1.80;;;8.70;99.90;;;;;;5033912;28;20230;-57
2021/11/03 04:27:12;;;;;;;7.37;3.60;;;8.70;99.90;;;;;;5034134;28;20210;-57
2021/11/03 04:29:38;;;;;;;3.87;2.73;;;8.70;99.90;;;;;;5033793;28;20206;-57
2021/11/03 04:32:06;;;;;;;5.20;2.47;;;8.80;99.90;;;;;;5033758;28;20234;-58
2021/11/03 04:34:32;;;;;;;4.67;3.40;;;8.70;99.90;;;;;;5033854;28;20217;-57
2021/11/03 04:36:59;;;;;;;5.87;3.70;;;8.70;99.90;;;;;;5033945;28;20210;-58
2021/11/03 04:39:26;;;;;;;4.90;2.90;;;8.60;99.90;;;;;;5033697;28;20206;-58
2021/11/03 04:41:54;;;;;;;3.20;2.40;;;8.60;99.90;;;;;;5034074;28;20230;-58
2021/11/03 04:44:21;;;;;;;6.23;2.93;;;8.60;99.90;;;;;;5033288;28;20222;-57
2021/11/03 04:46:47;;;;;;;3.57;2.53;;;8.60;99.90;;;;;;5033005;28;20206;-58
2021/11/03 04:49:14;;;;;;;3.07;2.40;;;8.50;99.90;;;;;;5033680;28;20272;-57
2021/11/03 04:51:41;;;;;;;5.23;2.50;;;8.50;99.90;;;;;;5033466;28;20737;-57
2021/11/03 04:54:08;;;;;;;3.03;2.10;;;8.60;99.90;;;;;;5033474;28;20210;-58
2021/11/03 04:56:36;;;;;;;4.90;2.73;;;8.60;99.90;;;;;;5033370;28;20255;-58
2021/11/03 04:59:05;;;;;;;2.57;2.03;;;8.70;99.90;;;;;;5033090;28;20214;-57
2021/11/03 05:01:32;;;;;;;5.40;2.00;;;8.70;99.90;;;;;;5033471;28;20280;-57
2021/11/03 05:03:59;;;;;;;3.43;2.53;;;8.70;99.90;;;;;;5033147;28;20776;-57
2021/11/03 05:06:30;;;;;;;4.17;2.23;;;8.60;99.90;;;;;;5033153;28;20613;-58
2021/11/03 05:08:57;;;;;;;3.20;2.27;;;8.50;99.90;;;;;;5032948;28;20643;-57
2021/11/03 05:11:25;;;;;;;3.00;2.30;;;8.40;99.90;;;;;;5033019;28;20602;-57
2021/11/03 05:13:52;;;;;;;4.20;2.50;;;8.40;99.90;;;;;;5033088;28;20206;-57
2021/11/03 05:16:22;;;;;;;3.07;2.00;;;8.40;99.90;;;;;;5033193;28;20267;-58
2021/11/03 05:18:49;;;;;;;2.43;1.80;;;8.40;99.90;;;;;;5033102;28;20206;-58
2021/11/03 05:21:16;;;;;;;4.33;2.10;;;8.30;99.90;;;;;;5033248;28;20230;-57
2021/11/03 05:23:43;;;;;;;4.57;3.10;;;8.30;99.90;;;;;;5032727;28;20222;-57
2021/11/03 05:26:12;;;;;;;3.60;1.87;;;8.40;99.90;;;;;;5033217;28;20207;-58
2021/11/03 05:28:41;;;;;;;2.77;1.80;;;8.50;99.90;;;;;;5032929;28;20206;-58
2021/11/03 05:31:07;;;;;;;2.23;2.00;;;8.50;99.90;;;;;;5032696;28;20225;-59
2021/11/03 05:33:35;;;;;;;2.37;1.90;;;8.60;99.90;;;;;;5032846;28;20207;-58
2021/11/03 05:36:02;;;;;;;3.90;1.90;;;8.50;99.90;;;;;;5032657;28;20670;-58
2021/11/03 05:38:29;;;;;;;2.37;1.60;;;8.50;99.90;;;;;;5032575;28;20214;-58
2021/11/03 05:40:55;;;;;;;2.80;1.90;;;8.50;99.90;;;;;;5032817;28;20214;-58
2021/11/03 05:43:22;;;;;;;2.40;1.80;;;8.60;99.90;;;;;;5032414;28;20206;-58
2021/11/03 05:45:50;;;;;;;1.97;1.67;;;8.60;99.90;;;;;;5032529;28;20290;-59
2021/11/03 05:48:18;;;;;;;2.60;2.10;;;8.70;99.90;;;;;;5032424;28;20665;-58
2021/11/03 05:50:46;;;;;;;2.30;1.90;;;8.80;99.90;;;;;;5032409;28;20301;-59
2021/11/03 05:53:13;;;;;;;1.70;1.40;;;8.90;99.90;;;;;;5032132;28;20577;-58
2021/11/03 05:55:39;;;;;;;1.57;1.47;;;8.80;99.90;;;;;;5032345;28;20606;-58
2021/11/03 05:58:06;;;;;;;3.17;1.90;;;8.80;99.90;;;;;;5031155;28;20258;-59
2021/11/03 06:00:37;;;;;;;3.50;2.10;;;8.80;99.90;;;;;;5032112;28;20210;-59
2021/11/03 06:03:04;;;;;;;2.97;1.67;;;8.90;99.90;;;;;;5032132;28;20237;-59
2021/11/03 06:05:32;;;;;;;3.23;2.17;;;9.00;99.90;;;;;;5031852;28;20230;-59
2021/11/03 06:08:03;;;;;;;2.63;1.73;;;9.00;99.90;;;;;;5032290;28;20210;-59
2021/11/03 06:10:35;;;;;;;3.50;1.70;;;9.00;99.90;;;;;;5032339;28;20712;-59
2021/11/03 06:13:02;;;;;;;2.87;1.70;;;9.10;99.90;;;;;;5031956;28;20226;-60
2021/11/03 06:15:31;;;;;;;3.63;1.53;;;9.00;99.90;;;;;;5031743;28;20198;-58
2021/11/03 06:17:58;;;;;;;3.37;1.87;;;8.90;99.90;;;;;;5031686;28;20206;-59
2021/11/03 06:20:26;;;;;;;2.13;1.43;;;8.70;99.90;;;;;;5032065;28;20214;-59
2021/11/03 06:22:53;;;;;;;1.83;1.20;;;8.50;99.90;;;;;;5032080;28;20651;-57
2021/11/03 06:25:24;;;;;;;3.63;1.53;;;8.50;99.90;;;;;;5031770;28;20226;-61
2021/11/03 06:27:51;;;;;;;2.00;1.57;;;8.40;99.90;;;;;;5031741;28;20202;-59
2021/11/03 06:30:20;;;;;;;2.47;1.50;;;8.30;99.90;;;;;;5031883;28;20210;-58
2021/11/03 06:32:47;;;;;;;1.83;1.37;;;8.30;99.90;;;;;;5031791;28;20238;-57
2021/11/03 06:35:15;;;;;;;5.23;1.80;;;8.30;99.90;;;;;;5031904;28;20213;-56
2021/11/03 06:37:41;;;;;;;2.03;1.43;;;8.40;99.90;;;;;;5032204;28;20229;-58
2021/11/03 06:40:10;;;;;;;2.07;1.10;;;8.30;99.90;;;;;;5031702;28;20748;-58
2021/11/03 06:42:38;;;;;;;2.27;1.50;;;8.40;99.90;;;;;;5031442;28;20226;-59
2021/11/03 06:45:08;;;;;;;2.80;1.50;;;8.40;99.90;;;;;;5031076;28;20226;-58
2021/11/03 06:47:35;;;;;;;1.70;1.57;;;8.40;99.90;;;;;;5031462;28;20210;-58
2021/11/03 06:50:01;;;;;;;2.03;1.60;;;8.30;99.90;;;;;;5031729;28;20202;-58
2021/11/03 06:52:31;;;;;;;2.43;1.43;;;8.40;99.90;;;;;;5031301;28;20317;-57
2021/11/03 06:54:58;;;;;;;1.33;1.23;;;8.50;99.90;;;;;;5030999;28;20202;-58
2021/11/03 06:57:24;;;;;;;3.93;1.80;;;8.50;99.90;;;;;;5031787;28;20237;-59
2021/11/03 06:59:56;;;;;;;2.93;1.73;;;8.40;99.90;;;;;;5031732;28;20210;-58
2021/11/03 07:02:23;;;;;;;5.10;2.37;;;8.50;99.90;;;;;;5015008;28;20226;-61
2021/11/03 07:04:50;;;;;;;5.37;2.10;;;8.90;99.90;;;;;;5032459;28;20233;-59
2021/11/03 07:07:17;;;;;;;2.13;1.30;;;9.30;99.90;;;;;;5031802;28;20201;-58
2021/11/03 07:09:43;;;;;;;7.50;3.37;;;9.60;99.90;;;;;;5031093;28;20206;-58
2021/11/03 07:12:11;;;;;;;3.40;2.23;;;9.90;99.90;;;;;;5031519;28;20233;-58
2021/11/03 07:14:38;;;;;;;3.00;1.67;;;10.20;99.90;;;;;;5031483;28;20209;-58
2021/11/03 07:17:11;;;;;;;2.53;1.30;;;10.30;99.90;;;;;;5031339;28;20712;-59
2021/11/03 07:19:39;;;;;;;2.53;1.30;;;10.30;99.90;;;;;;5031342;28;20611;-59
2021/11/03 07:22:07;;;;;;;1.60;1.00;;;10.40;99.90;;;;;;5031178;28;20641;-59
2021/11/03 07:24:34;;;;;;;4.20;1.30;;;10.30;99.90;;;;;;5030999;28;20713;-59
2021/11/03 07:27:01;;;;;;;1.10;1.00;;;10.20;99.90;;;;;;5031356;28;20217;-58
2021/11/03 07:29:27;;;;;;;1.80;1.00;;;10.30;99.90;;;;;;5031325;28;20621;-59
2021/11/03 07:31:54;;;;;;;1.23;0.97;;;10.30;99.90;;;;;;5067092;22;20225;-58
2021/11/03 07:34:22;;;;;;;2.27;1.00;;;10.20;99.90;;;;;;5070483;28;20688;-58
2021/11/03 07:36:49;;;;;;;1.80;1.27;;;10.10;99.90;;;;;;5070655;28;20205;-58
2021/11/03 07:39:16;;;;;;;1.60;1.20;;;10.20;99.90;;;;;;5070416;28;20243;-58
2021/11/03 07:41:43;;;;;;;5.93;1.23;;;10.30;99.90;;;;;;5070613;28;20225;-58
2021/11/03 07:44:10;;;;;;;1.57;0.87;;;10.50;99.90;;;;;;5070543;28;20236;-58
2021/11/03 07:46:37;;;;;;;2.40;1.07;;;10.40;99.90;;;;;;5070996;28;20258;-58
2021/11/03 07:49:04;;;;;;;3.73;1.10;;;10.40;99.90;;;;;;5071018;28;20209;-59
2021/11/03 07:51:33;;;;;;;1.63;0.97;;;10.50;99.90;;;;;;5070568;28;20221;-57
2021/11/03 07:54:00;;;;;;;1.53;0.87;;;10.70;99.90;;;;;;5070293;28;20695;-58
2021/11/03 07:56:29;;;;;;;1.07;0.93;;;10.80;99.90;;;;;;5070604;28;20208;-57
2021/11/03 07:58:56;;;;;;;3.33;1.07;;;11.00;99.90;;;;;;5070271;28;20690;-57
2021/11/03 08:01:24;;;;;;;1.60;1.37;;;11.00;99.90;;;;;;5070515;28;20633;-56
2021/11/03 08:03:51;;;;;;;1.37;1.00;;;10.90;99.90;;;;;;5070351;28;20209;-56
2021/11/03 08:06:18;;;;;;;2.47;1.23;;;11.00;99.90;;;;;;5070421;28;20201;-57
2021/11/03 08:09:01;;;;;;;2.03;1.00;;;11.10;99.90;;;;;;5070479;28;20205;-57
2021/11/03 08:11:30;;;;;;;1.73;1.00;;;11.20;99.90;;;;;;5070155;28;20212;-58
2021/11/03 08:13:57;;;;;;;1.17;1.00;;;11.50;99.90;;;;;;5070306;28;20254;-57
2021/11/03 08:16:23;;;;;;;1.47;1.00;;;11.50;99.90;;;;;;5070332;28;20275;-58
2021/11/03 08:18:50;;;;;;;0.97;0.73;;;11.60;99.90;;;;;;5070064;28;20201;-58
2021/11/03 08:21:17;;;;;;;2.70;1.10;;;11.60;99.90;;;;;;5072186;28;20216;-59
2021/11/03 08:23:45;;;;;;;2.67;1.00;;;11.70;99.90;;;;;;5074177;28;20205;-61
2021/11/03 08:26:12;;;;;;;1.73;1.00;;;11.70;99.90;;;;;;5073796;28;20622;-59
2021/11/03 08:28:39;;;;;;;1.10;0.90;;;11.70;99.90;;;;;;5073942;28;20205;-59
2021/11/03 08:31:06;;;;;;;1.80;1.50;;;11.80;99.90;;;;;;5073772;28;20208;-60
2021/11/03 08:33:38;;;;;;;3.10;1.10;;;11.70;99.90;;;;;;5074163;28;20240;-59
2021/11/03 08:36:06;;;;;;;1.80;1.50;;;11.70;99.90;;;;;;5073533;28;20660;-60
2021/11/03 08:38:35;;;;;;;3.43;1.80;;;11.80;99.90;;;;;;5073860;28;20205;-60
2021/11/03 08:41:04;;;;;;;3.00;1.70;;;11.70;99.90;;;;;;5073740;28;20291;-59
2021/11/03 08:43:34;;;;;;;1.30;1.20;;;11.70;99.90;;;;;;5073464;28;20225;-59
2021/11/03 08:46:02;;;;;;;1.83;1.33;;;11.60;99.90;;;;;;5072270;28;20692;-59
2021/11/03 08:48:28;;;;;;;2.07;1.50;;;11.50;99.90;;;;;;5073048;28;20723;-58
2021/11/03 08:50:56;;;;;;;2.53;1.20;;;11.40;99.90;;;;;;5073178;28;20624;-59
2021/11/03 08:53:23;;;;;;;3.93;1.60;;;11.20;99.90;;;;;;5073075;28;20229;-57
2021/11/03 08:55:51;;;;;;;2.13;1.53;;;11.10;99.90;;;;;;5073280;28;20205;-60
2021/11/03 08:58:21;;;;;;;2.87;1.60;;;10.90;99.90;;;;;;5072956;28;20208;-60
2021/11/03 09:00:49;;;;;;;4.70;1.70;;;10.90;99.90;;;;;;5073407;28;20219;-60
2021/11/03 09:03:16;;;;;;;2.33;1.27;;;10.90;99.90;;;;;;5073348;28;20225;-59
2021/11/03 09:05:43;;;;;;;3.10;2.03;;;11.00;99.90;;;;;;5073113;28;20651;-60
2021/11/03 09:08:11;;;;;;;4.17;1.73;;;11.00;99.90;;;;;;5073116;28;20616;-63
2021/11/03 09:10:45;;;;;;;2.83;1.50;;;11.00;99.90;;;;;;5070196;28;20252;-61
2021/11/03 09:13:13;;;;;;;4.43;2.60;;;11.00;99.90;;;;;;5072532;28;20315;-61
2021/11/03 09:15:41;;;;;;;0.83;0.83;;;10.90;99.90;;;;;;5072887;28;20228;-60
2021/11/03 09:18:08;;;;;;;8.63;4.57;;;11.00;99.90;;;;;;5072677;28;20227;-61
2021/11/03 09:20:34;;;;;;;1.40;1.20;;;11.10;99.90;;;;;;5072413;28;20209;-61
2021/11/03 09:23:01;;;;;;;1.20;1.10;;;11.20;99.90;;;;;;5072421;28;20256;-59
2021/11/03 09:25:28;;;;;;;4.73;3.43;;;11.30;99.90;;;;;;5072068;28;20220;-58
2021/11/03 09:27:54;;;;;;;2.23;1.23;;;11.40;99.90;;;;;;5072304;28;20205;-59
2021/11/03 09:30:24;;;;;;;5.17;2.73;;;11.60;99.90;;;;;;5072541;28;20615;-59
2021/11/03 09:32:57;;;;;;;3.17;1.33;;;11.60;99.90;;;;;;5072089;28;20308;-59
2021/11/03 09:35:28;;;;;;;2.97;1.60;;;11.80;99.90;;;;;;5072149;28;20295;-57
2021/11/03 09:37:56;;;;;;;1.50;1.10;;;12.20;99.90;;;;;;5072183;28;20295;-58
2021/11/03 09:40:26;;;;;;;1.73;1.20;;;12.50;99.90;;;;;;5072201;28;20205;-57
2021/11/03 09:42:55;;;;;;;1.37;1.10;;;12.90;99.90;;;;;;5072480;28;20225;-58
2021/11/03 09:45:25;;;;;;;1.30;0.93;;;13.10;99.90;;;;;;5072109;28;20256;-58
2021/11/03 09:48:02;;;;;;;1.63;1.10;;;13.30;99.90;;;;;;5072037;28;20212;-58
2021/11/03 09:50:33;;;;;;;3.33;0.97;;;13.40;99.90;;;;;;5071990;28;20208;-58
2021/11/03 09:53:02;;;;;;;1.90;1.33;;;13.50;99.90;;;;;;5072210;28;20229;-58
2021/11/03 09:55:31;;;;;;;1.20;0.80;;;13.50;99.90;;;;;;5072026;28;20205;-59
2021/11/03 09:58:09;;;;;;;1.23;0.90;;;13.50;99.90;;;;;;5071881;28;20275;-58
2021/11/03 10:00:41;;;;;;;1.23;0.87;;;13.70;99.90;;;;;;5071612;28;20681;-59
2021/11/03 10:03:30;;;;;;;1.40;0.90;;;13.70;99.90;;;;;;5071679;28;20266;-58
2021/11/03 10:06:04;;;;;;;2.07;0.90;;;13.80;99.90;;;;;;5071818;28;20256;-58
2021/11/03 10:08:34;;;;;;;1.23;0.83;;;13.90;99.90;;;;;;5071802;28;20288;-59
2021/11/03 10:11:05;;;;;;;4.63;1.30;;;14.10;99.90;;;;;;5072475;28;20205;-58
2021/11/03 10:13:35;;;;;;;0.70;0.63;;;14.20;99.90;;;;;;5071774;28;20623;-58
2021/11/03 10:16:04;;;;;;;2.03;1.20;;;14.30;99.90;;;;;;5072000;28;20299;-58
2021/11/03 10:18:34;;;;;;;1.47;1.13;;;14.20;99.90;;;;;;5071977;28;20573;-59
2021/11/03 10:21:17;;;;;;;1.67;1.23;;;14.10;99.90;;;;;;5071627;28;20204;-59
2021/11/03 10:23:54;;;;;;;1.60;1.30;;;13.90;99.90;;;;;;5071475;28;20216;-58
2021/11/03 10:26:23;;;;;;;1.80;1.40;;;13.80;99.90;;;;;;5071502;28;20224;-58
2021/11/03 10:29:05;;;;;;;2.43;1.20;;;13.90;99.90;;;;;;5071761;28;20249;-58
2021/11/03 10:31:40;;;;;;;4.20;1.80;;;13.90;99.90;;;;;;5071265;28;20225;-57
2021/11/03 10:34:19;;;;;;;2.80;1.57;;;14.10;99.90;;;;;;5071226;28;20201;-58
2021/11/03 10:36:48;;;;;;;2.90;1.40;;;14.30;99.90;;;;;;5071607;28;20201;-57
2021/11/03 10:39:19;;;;;;;3.47;1.40;;;14.40;99.90;;;;;;5071188;28;20208;-58
2021/11/03 10:41:55;;;;;;;3.40;1.47;;;14.40;99.90;;;;;;5071315;28;20229;-60
2021/11/03 10:44:24;;;;;;;3.27;1.50;;;14.50;99.90;;;;;;5070556;28;20663;-57
2021/11/03 10:46:54;;;;;;;2.33;1.40;;;14.50;99.90;;;;;;5071050;28;20225;-58
2021/11/03 10:52:20;;;;;;;2.47;1.13;;;14.60;99.90;;;;;;5069246;28;20602;-58
2021/11/03 10:54:50;;;;;;;1.20;1.00;;;14.40;99.90;;;;;;5071366;28;20204;-56
2021/11/03 10:57:28;;;;;;;1.93;1.23;;;14.20;99.90;;;;;;5070935;28;20201;-59
2021/11/03 11:00:01;;;;;;;3.50;1.60;;;14.20;99.90;;;;;;5070991;28;20209;-55
2021/11/03 11:02:31;;;;;;;3.60;1.30;;;14.30;99.90;;;;;;5070966;28;20228;-56
2021/11/03 11:05:20;;;;;;;2.20;1.67;;;14.40;99.90;;;;;;5070784;28;20232;-56
2021/11/03 11:07:52;;;;;;;1.60;1.10;;;14.60;99.90;;;;;;5070760;28;20647;-56
2021/11/03 11:10:27;;;;;;;2.43;1.20;;;14.70;99.90;;;;;;5071050;28;20209;-56
2021/11/03 11:12:57;;;;;;;1.73;1.30;;;14.80;99.90;;;;;;5071024;28;20228;-55
2021/11/03 11:15:27;;;;;;;2.07;1.07;;;15.00;99.90;;;;;;5070959;28;20204;-57
2021/11/03 11:18:01;;;;;;;2.40;1.60;;;15.00;99.90;;;;;;5071099;28;20266;-56
2021/11/03 11:20:34;;;;;;;1.73;1.43;;;15.10;99.90;;;;;;5071724;28;20205;-56
2021/11/03 11:23:09;;;;;;;1.20;1.03;;;15.00;99.90;;;;;;5071352;28;20645;-63
2021/11/03 11:25:44;;;;;;;3.83;1.80;;;14.80;99.90;;;;;;5071594;28;20623;-56
2021/11/03 11:28:25;;;;;;;2.30;1.40;;;14.80;99.90;;;;;;5071293;28;20200;-62
2021/11/03 11:30:57;;;;;;;3.13;1.20;;;14.80;99.90;;;;;;5071138;28;20208;-58
2021/11/03 11:33:26;;;;;;;4.30;1.80;;;14.90;99.90;;;;;;5070698;28;20247;-60
2021/11/03 11:36:21;;;;;;;3.97;1.70;;;15.00;99.90;;;;;;5071301;28;20209;-63
2021/11/03 11:39:04;;;;;;;1.53;1.10;;;15.00;99.90;;;;;;5063093;28;20209;-57
2021/11/03 11:41:35;;;;;;;3.40;1.37;;;15.00;99.90;;;;;;5071487;28;20240;-59
2021/11/03 11:44:07;;;;;;;1.67;1.20;;;15.00;99.90;;;;;;5071113;28;20205;-60
2021/11/03 11:46:35;;;;;;;2.83;1.60;;;15.10;99.90;;;;;;5071308;28;20231;-58
2021/11/03 11:49:09;;;;;;;5.47;3.07;;;15.20;99.90;;;;;;5070715;28;20287;-60
2021/11/03 11:51:44;;;;;;;1.67;1.37;;;15.20;99.90;;;;;;5070623;28;20314;-58
2021/11/03 11:54:28;;;;;;;2.50;1.47;;;15.20;99.90;;;;;;5070576;28;20261;-58
2021/11/03 11:57:24;;;;;;;7.50;4.50;;;15.10;99.90;;;;;;5074091;28;20204;-58
2021/11/03 12:00:12;;;;;;;18.00;11.07;;;15.10;99.90;;;;;;5074016;28;20231;-59
2021/11/03 12:03:02;;;;;;;19.13;9.47;;;15.00;99.90;;;;;;5074315;28;20225;-57
2021/11/03 12:05:45;;;;;;;18.23;10.23;;;14.80;99.90;;;;;;5074347;28;20594;-57
2021/11/03 12:08:22;;;;;;;4.93;3.20;;;14.80;99.90;;;;;;5073967;28;20590;-61
2021/11/03 12:11:21;;;;;;;4.53;2.83;;;14.80;99.90;;;;;;5071277;28;20430;-56
2021/11/03 12:14:21;;;;;;;2.10;1.70;;;14.80;99.90;;;;;;5073672;28;20236;-57
2021/11/03 12:17:01;;;;;;;3.13;1.80;;;14.70;99.90;;;;;;5073992;28;20252;-58
2021/11/03 12:19:49;;;;;;;3.27;1.77;;;14.50;99.90;;;;;;5073166;28;20208;-58
2021/11/03 12:22:19;;;;;;;3.47;2.13;;;14.50;99.90;;;;;;5073492;28;20233;-58
2021/11/03 12:24:50;;;;;;;4.70;2.30;;;14.50;99.90;;;;;;5073389;28;20204;-57
2021/11/03 12:27:35;;;;;;;4.83;2.37;;;14.70;99.90;;;;;;5073588;28;20229;-57
2021/11/03 12:30:35;;;;;;;3.07;1.93;;;14.70;99.90;;;;;;5073434;28;20201;-57
2021/11/03 12:33:06;;;;;;;2.43;1.63;;;14.60;99.90;;;;;;5073281;28;20237;-57
2021/11/03 12:35:49;;;;;;;4.03;2.20;;;14.30;99.90;;;;;;5073826;28;20205;-58
2021/11/03 12:38:47;;;;;;;3.33;2.20;;;14.20;99.90;;;;;;5073378;28;20205;-59
2021/11/03 12:41:24;;;;;;;3.47;2.10;;;14.00;99.90;;;;;;5073329;28;20676;-56
2021/11/03 12:43:56;;;;;;;2.27;1.63;;;14.20;99.90;;;;;;5073678;28;20250;-56
2021/11/03 12:46:23;;;;;;;1.97;1.73;;;14.20;99.90;;;;;;5074085;28;20753;-56
2021/11/03 12:48:55;;;;;;;2.50;1.67;;;14.20;99.90;;;;;;5073271;28;20218;-57
2021/11/03 12:51:24;;;;;;;2.57;1.70;;;14.10;99.90;;;;;;5073542;28;20635;-57
2021/11/03 12:53:52;;;;;;;2.60;1.70;;;14.10;99.90;;;;;;5073936;28;20258;-57
2021/11/03 12:56:23;;;;;;;4.13;2.07;;;14.20;99.90;;;;;;5074073;28;20790;-56
2021/11/03 12:58:53;;;;;;;3.73;1.83;;;14.30;99.90;;;;;;5073515;28;20205;-56
2021/11/03 13:01:23;;;;;;;5.07;2.30;;;14.30;99.90;;;;;;5073180;28;20205;-57
2021/11/03 13:03:55;;;;;;;5.90;2.43;;;14.40;99.90;;;;;;5073276;28;20587;-57
2021/11/03 13:06:27;;;;;;;6.57;2.10;;;14.40;99.90;;;;;;5072575;28;20225;-57
2021/11/03 13:08:55;;;;;;;5.20;2.40;;;14.40;99.90;;;;;;5073558;28;20201;-57